Wtr Mill, New York
Current Conditions -  °F | °C
As of 1:53 PM on Thursday 23 Oct 2014 (Local Time) from KFOK Reporting Station
Overcast Overcast  
Wind Chill: 13°   Ceiling: 1700
Heat Index: 13°   Visibility: 10mi
Dew Point:   Wind: 14mph
Humidity: 80%   Direction: 340°NNW
Pressure: 29.61"   Gusts: NA
Location:  40.9217°N, 72.3434°W
Report Text: KFOK 231753Z 34012KT 10SM OVC017 13/09 A2961 RMK AO2 SLP026 60010 T01280094 10133 20111 58004
Loading
Personal Weather Stations






























Interactive Weather Map
Tropical Storm Tracking
New forecast layout! Learn more

10-Day Weather Forecast

Advertisements
Track Severe Weather on mobile